Time;durP1;ratioP1;P1;durP2;ratioP2;P2;SDS_P1;SDS_P2;PMS_P1;PMS_P2;Temp;Humidity;BMP_temperature;BMP_pressure;BME280_temperature;BME280_humidity;BME280_pressure;Samples;Min_cycle;Max_cycle;Signal;HPM_P1;HPM_P2
2022/05/11 00:01:48;;;;;;;7.20;3.63;;;14.90;99.90;;;;;;5076734;28;20042;-64
2022/05/11 00:04:15;;;;;;;6.05;3.70;;;14.90;99.90;;;;;;5094523;28;20342;-64
2022/05/11 00:06:41;;;;;;;7.25;3.72;;;14.90;99.90;;;;;;5094760;28;20070;-65
2022/05/11 00:09:08;;;;;;;7.03;3.83;;;14.90;99.90;;;;;;5076766;28;20457;-64
2022/05/11 00:11:36;;;;;;;8.02;3.97;;;14.90;99.90;;;;;;5089765;28;20036;-64
2022/05/11 00:14:02;;;;;;;5.70;3.83;;;14.80;99.90;;;;;;5093132;28;20059;-64
2022/05/11 00:16:28;;;;;;;6.43;3.75;;;14.80;99.90;;;;;;5094266;28;20065;-64
2022/05/11 00:18:54;;;;;;;7.70;3.55;;;14.90;99.90;;;;;;5094650;28;20064;-64
2022/05/11 00:21:20;;;;;;;7.53;3.88;;;14.80;99.90;;;;;;5094073;28;20441;-65
2022/05/11 00:23:46;;;;;;;7.40;3.90;;;14.80;99.90;;;;;;5094371;28;20042;-64
2022/05/11 00:26:12;;;;;;;6.60;3.85;;;14.80;99.90;;;;;;5094259;28;20142;-65
2022/05/11 00:28:37;;;;;;;6.78;3.60;;;14.80;99.90;;;;;;5076620;28;20469;-64
2022/05/11 00:31:03;;;;;;;7.88;4.10;;;14.70;99.90;;;;;;5075884;28;20055;-65
2022/05/11 00:33:30;;;;;;;6.78;3.90;;;14.70;99.90;;;;;;5072812;28;20120;-64
2022/05/11 00:35:56;;;;;;;7.07;3.80;;;14.70;99.90;;;;;;5091926;28;20032;-65
2022/05/11 00:38:24;;;;;;;8.82;3.90;;;14.70;99.90;;;;;;5094404;28;20054;-64
2022/05/11 00:40:54;;;;;;;7.43;3.88;;;14.70;99.90;;;;;;5094364;28;20101;-63
2022/05/11 00:43:34;;;;;;;8.57;3.90;;;14.70;99.90;;;;;;5093717;28;20436;-65
2022/05/11 00:46:12;;;;;;;9.25;4.43;;;14.60;99.90;;;;;;5075950;28;20768;-65
2022/05/11 00:51:27;;;;;;;6.57;4.00;;;14.60;99.90;;;;;;5091074;28;20470;-65
2022/05/11 00:53:54;;;;;;;6.75;4.28;;;14.60;99.90;;;;;;5091469;28;20482;-65
2022/05/11 00:56:22;;;;;;;8.00;4.13;;;14.50;99.90;;;;;;5093255;28;20345;-65
2022/05/11 00:58:52;;;;;;;6.93;3.95;;;14.50;99.90;;;;;;5093369;28;20469;-65
2022/05/11 01:01:18;;;;;;;6.28;4.00;;;14.50;99.90;;;;;;5093715;28;20050;-64
2022/05/11 01:03:55;;;;;;;6.50;4.32;;;14.50;99.90;;;;;;5076349;28;20122;-65
2022/05/11 01:06:22;;;;;;;10.05;4.35;;;14.50;99.90;;;;;;5075642;28;20044;-65
2022/05/11 01:08:47;;;;;;;6.93;4.50;;;14.50;99.90;;;;;;5094053;28;20036;-64
2022/05/11 01:11:14;;;;;;;7.63;4.13;;;14.50;99.90;;;;;;5074449;28;20548;-65
2022/05/11 01:13:42;;;;;;;6.38;4.15;;;14.50;99.90;;;;;;5089459;28;20048;-65
2022/05/11 01:16:08;;;;;;;7.43;4.60;;;14.50;99.90;;;;;;5075723;28;20036;-66
2022/05/11 01:18:37;;;;;;;8.05;4.28;;;14.50;99.90;;;;;;5076147;28;20101;-64
2022/05/11 01:21:05;;;;;;;8.48;4.78;;;14.40;99.90;;;;;;5093725;28;20036;-65
2022/05/11 01:23:39;;;;;;;8.23;4.43;;;14.40;99.90;;;;;;5075858;28;20120;-65
2022/05/11 01:26:05;;;;;;;6.60;4.45;;;14.40;99.90;;;;;;5093740;28;20428;-65
2022/05/11 01:28:31;;;;;;;9.07;5.00;;;14.40;99.90;;;;;;5093278;28;20127;-65
2022/05/11 01:31:06;;;;;;;6.40;4.60;;;14.40;99.90;;;;;;5075956;28;20044;-65
2022/05/11 01:33:33;;;;;;;8.43;4.55;;;14.50;99.90;;;;;;5075382;28;20059;-66
2022/05/11 01:36:09;;;;;;;8.82;4.45;;;14.50;99.90;;;;;;5093354;28;20145;-65
2022/05/11 01:38:42;;;;;;;9.07;4.63;;;14.50;99.90;;;;;;5093563;28;20036;-64
2022/05/11 01:41:12;;;;;;;8.30;4.25;;;14.50;99.90;;;;;;5074787;28;20052;-64
2022/05/11 01:43:39;;;;;;;6.78;4.18;;;14.50;99.90;;;;;;5056147;28;20063;-66
2022/05/11 01:46:06;;;;;;;7.72;4.10;;;14.60;99.90;;;;;;5055133;28;20118;-66
2022/05/11 01:48:32;;;;;;;8.38;4.55;;;14.50;99.90;;;;;;5073321;28;20111;-63
2022/05/11 01:50:58;;;;;;;6.80;4.65;;;14.60;99.90;;;;;;5073070;28;20540;-63
2022/05/11 01:53:25;;;;;;;9.00;4.32;;;14.50;99.90;;;;;;5074648;28;20044;-63
2022/05/11 01:55:50;;;;;;;8.95;4.22;;;14.50;99.90;;;;;;5093296;28;20040;-64
2022/05/11 01:58:17;;;;;;;9.25;4.30;;;14.50;99.90;;;;;;5093582;28;20342;-64
2022/05/11 02:00:45;;;;;;;6.43;3.72;;;14.50;99.90;;;;;;5075643;28;20051;-65
2022/05/11 02:03:12;;;;;;;6.90;3.90;;;14.50;99.90;;;;;;5075028;28;20055;-64
2022/05/11 02:08:23;;;;;;;7.25;3.53;;;14.50;99.90;;;;;;5094375;28;20036;-65
2022/05/11 02:10:49;;;;;;;6.97;3.50;;;14.50;99.90;;;;;;5096891;28;20512;-64
2022/05/11 02:13:15;;;;;;;8.98;3.65;;;14.50;99.90;;;;;;5090770;28;20127;-65
2022/05/11 02:15:41;;;;;;;7.03;3.85;;;14.40;99.90;;;;;;5079001;28;20067;-64
2022/05/11 02:18:07;;;;;;;9.95;4.18;;;14.40;99.90;;;;;;5096775;28;20457;-65
2022/05/11 02:20:33;;;;;;;7.20;3.58;;;14.40;99.90;;;;;;5078788;28;20450;-65
2022/05/11 02:22:59;;;;;;;9.75;3.72;;;14.40;99.90;;;;;;5078807;28;20347;-64
2022/05/11 02:25:25;;;;;;;5.75;3.85;;;14.40;99.90;;;;;;5095914;28;20059;-65
2022/05/11 02:27:52;;;;;;;7.45;3.72;;;14.40;99.90;;;;;;5096767;28;20166;-64
2022/05/11 02:30:25;;;;;;;8.98;3.33;;;14.30;99.90;;;;;;5096357;28;20428;-65
2022/05/11 02:32:53;;;;;;;7.15;3.53;;;14.40;99.90;;;;;;5096549;28;20043;-66
2022/05/11 02:35:21;;;;;;;7.22;3.30;;;14.40;99.90;;;;;;5096222;28;20113;-65
2022/05/11 02:37:59;;;;;;;8.02;3.58;;;14.40;99.90;;;;;;5096509;28;20079;-66
2022/05/11 02:40:28;;;;;;;6.35;3.03;;;14.40;99.90;;;;;;5078583;28;20043;-65
2022/05/11 02:42:54;;;;;;;9.77;3.10;;;14.40;99.90;;;;;;5090596;28;20538;-65
2022/05/11 02:45:21;;;;;;;9.43;3.67;;;14.40;99.90;;;;;;5096089;28;20040;-66
2022/05/11 02:47:48;;;;;;;7.95;3.15;;;14.40;99.90;;;;;;5096357;28;20032;-64
2022/05/11 02:50:19;;;;;;;7.00;3.05;;;14.40;99.90;;;;;;5096372;28;20036;-64
2022/05/11 02:52:44;;;;;;;8.05;3.40;;;14.40;99.90;;;;;;5095795;28;20033;-64
2022/05/11 02:55:10;;;;;;;6.45;3.05;;;14.40;99.90;;;;;;5095988;28;20097;-64
2022/05/11 02:57:36;;;;;;;6.35;3.13;;;14.40;99.90;;;;;;5078318;28;20040;-64
2022/05/11 03:00:04;;;;;;;7.18;3.70;;;14.40;99.90;;;;;;5096206;28;20032;-64
2022/05/11 03:02:30;;;;;;;5.50;2.97;;;14.40;99.90;;;;;;5095009;28;20047;-64
2022/05/11 03:04:55;;;;;;;6.88;3.33;;;14.40;99.90;;;;;;5096064;28;20122;-66
2022/05/11 03:07:21;;;;;;;7.63;3.70;;;14.40;99.90;;;;;;5078006;28;20142;-65
2022/05/11 03:09:47;;;;;;;8.98;3.60;;;14.40;99.90;;;;;;5077742;28;20044;-65
2022/05/11 03:12:13;;;;;;;7.50;3.60;;;14.40;99.90;;;;;;5077422;28;20109;-65
2022/05/11 03:14:40;;;;;;;7.60;3.65;;;14.40;99.90;;;;;;5096100;28;20032;-63
2022/05/11 03:17:06;;;;;;;8.45;3.50;;;14.40;99.90;;;;;;5095718;28;20104;-63
2022/05/11 03:19:31;;;;;;;6.78;3.35;;;14.40;99.90;;;;;;5077412;28;20122;-64
2022/05/11 03:21:57;;;;;;;7.22;3.50;;;14.40;99.90;;;;;;5090052;28;20032;-63
2022/05/11 03:24:23;;;;;;;9.00;3.63;;;14.40;99.90;;;;;;5077637;28;20044;-65
2022/05/11 03:26:49;;;;;;;7.75;3.30;;;14.40;99.90;;;;;;5077117;28;20465;-64
2022/05/11 03:29:15;;;;;;;8.00;3.35;;;14.30;99.90;;;;;;5077466;28;20055;-65
2022/05/11 03:34:36;;;;;;;9.48;3.88;;;14.30;99.90;;;;;;5095285;28;20043;-65
2022/05/11 03:34:36;;;;;;;7.05;3.58;;;14.30;99.90;;;;;;5077447;28;20090;-65
2022/05/11 03:37:07;;;;;;;7.57;3.65;;;14.30;99.90;;;;;;5094933;28;20152;-65
2022/05/11 03:39:33;;;;;;;9.50;3.97;;;14.30;99.90;;;;;;5095432;28;20047;-65
2022/05/11 03:42:00;;;;;;;7.13;3.72;;;14.30;99.90;;;;;;5090304;28;20140;-65
2022/05/11 03:44:28;;;;;;;10.25;4.60;;;14.30;99.90;;;;;;5095184;28;20119;-66
2022/05/11 03:46:54;;;;;;;9.65;3.92;;;14.20;99.90;;;;;;5094626;28;20416;-65
2022/05/11 03:49:19;;;;;;;12.18;4.55;;;14.30;99.90;;;;;;5077104;28;20529;-65
2022/05/11 03:51:45;;;;;;;9.95;4.57;;;14.30;99.90;;;;;;5076901;28;20050;-65
2022/05/11 03:54:10;;;;;;;9.88;4.25;;;14.30;99.90;;;;;;5076976;28;20036;-65
2022/05/11 03:56:36;;;;;;;9.32;3.97;;;14.30;99.90;;;;;;5076991;28;20054;-65
2022/05/11 03:59:01;;;;;;;7.82;4.53;;;14.30;99.90;;;;;;5095030;28;20473;-65
2022/05/11 04:01:27;;;;;;;10.80;4.55;;;14.30;99.90;;;;;;5094681;28;20040;-65
2022/05/11 04:03:53;;;;;;;9.55;4.68;;;14.30;99.90;;;;;;5077075;28;20048;-66
2022/05/11 04:06:18;;;;;;;7.28;4.93;;;14.30;99.90;;;;;;5060018;28;20042;-64
2022/05/11 04:08:44;;;;;;;10.50;5.03;;;14.30;99.90;;;;;;5094918;28;20040;-65
2022/05/11 04:11:11;;;;;;;9.55;4.95;;;14.30;99.90;;;;;;5094456;28;20118;-65
2022/05/11 04:13:38;;;;;;;9.32;4.85;;;14.30;99.90;;;;;;5094096;28;20436;-64
2022/05/11 04:16:04;;;;;;;9.45;4.30;;;14.20;99.90;;;;;;5094372;28;20039;-66
2022/05/11 04:18:31;;;;;;;9.80;4.43;;;14.30;99.90;;;;;;5094189;28;20035;-65
2022/05/11 04:20:57;;;;;;;9.10;4.85;;;14.20;99.90;;;;;;5094353;28;20516;-65
2022/05/11 04:23:22;;;;;;;9.05;4.40;;;14.20;99.90;;;;;;5076328;28;20131;-65
2022/05/11 04:25:48;;;;;;;9.95;5.20;;;14.20;99.90;;;;;;5093725;28;20056;-65
2022/05/11 04:28:13;;;;;;;9.60;4.72;;;14.20;99.90;;;;;;5076404;28;20464;-65
2022/05/11 04:30:40;;;;;;;14.35;5.40;;;14.30;99.90;;;;;;5094422;28;20058;-65
2022/05/11 04:33:07;;;;;;;8.20;4.80;;;14.30;99.90;;;;;;5088697;28;20036;-65
2022/05/11 04:35:34;;;;;;;9.18;4.60;;;14.30;99.90;;;;;;5094147;28;20369;-65
2022/05/11 04:38:01;;;;;;;7.03;4.60;;;14.20;99.90;;;;;;5094246;28;20044;-64
2022/05/11 04:40:28;;;;;;;12.10;5.32;;;14.20;99.90;;;;;;5094305;28;20032;-65
2022/05/11 04:42:54;;;;;;;13.55;4.90;;;14.20;99.90;;;;;;5094083;28;20052;-65
2022/05/11 04:45:21;;;;;;;10.07;5.13;;;14.20;99.90;;;;;;5059185;28;20048;-65
2022/05/11 04:47:49;;;;;;;11.82;4.97;;;14.20;99.90;;;;;;5076310;28;20346;-68
2022/05/11 04:50:17;;;;;;;9.55;4.95;;;14.20;99.90;;;;;;5094326;28;20044;-65
2022/05/11 04:52:43;;;;;;;10.90;4.82;;;14.20;99.90;;;;;;5076197;28;20039;-65
2022/05/11 04:55:10;;;;;;;11.50;5.05;;;14.20;99.90;;;;;;5092721;28;20036;-65
2022/05/11 04:57:37;;;;;;;9.73;4.70;;;14.20;99.90;;;;;;5056010;28;20041;-65
2022/05/11 05:00:10;;;;;;;9.60;5.15;;;14.20;99.90;;;;;;5056302;28;20059;-65
2022/05/11 05:02:36;;;;;;;10.82;5.15;;;14.20;99.90;;;;;;5073653;28;20469;-65
2022/05/11 05:05:05;;;;;;;10.95;5.03;;;14.20;99.90;;;;;;5072794;28;20469;-65
2022/05/11 05:07:34;;;;;;;10.30;5.20;;;14.20;99.90;;;;;;5074360;28;20074;-65
2022/05/11 05:10:01;;;;;;;11.25;5.22;;;14.30;99.90;;;;;;5073274;28;20444;-65
2022/05/11 05:12:27;;;;;;;7.65;4.78;;;14.40;99.90;;;;;;5073811;28;20036;-65
2022/05/11 05:14:52;;;;;;;10.50;4.97;;;14.30;99.90;;;;;;5073300;28;20040;-65
2022/05/11 05:17:18;;;;;;;8.88;5.05;;;14.40;99.90;;;;;;5055521;28;20040;-65
2022/05/11 05:19:46;;;;;;;10.50;5.55;;;14.40;99.90;;;;;;5073303;28;20449;-65
2022/05/11 05:22:12;;;;;;;9.95;5.15;;;14.50;99.90;;;;;;5063145;28;20365;-64
2022/05/11 05:24:38;;;;;;;13.15;5.20;;;14.60;99.90;;;;;;5075364;28;20373;-67
2022/05/11 05:27:04;;;;;;;10.73;4.90;;;14.60;99.90;;;;;;5077846;28;20041;-66
2022/05/11 05:32:16;;;;;;;10.50;5.07;;;14.70;99.90;;;;;;5075110;28;20127;-64
2022/05/11 05:34:45;;;;;;;8.73;4.85;;;14.80;99.90;;;;;;5076050;28;20043;-64
2022/05/11 05:37:13;;;;;;;10.77;5.18;;;14.80;99.90;;;;;;5075390;28;20051;-64
2022/05/11 05:39:39;;;;;;;10.57;5.05;;;14.80;99.90;;;;;;5093791;28;20062;-66
2022/05/11 05:42:05;;;;;;;8.93;5.30;;;14.90;99.90;;;;;;5075480;28;20040;-66
2022/05/11 05:44:32;;;;;;;9.43;4.95;;;14.90;99.90;;;;;;5078587;28;20059;-65
2022/05/11 05:47:05;;;;;;;9.20;4.97;;;15.00;99.90;;;;;;5060153;28;20052;-65
2022/05/11 05:49:31;;;;;;;8.63;4.88;;;15.00;99.90;;;;;;5086604;28;20043;-64
2022/05/11 05:51:59;;;;;;;11.30;4.85;;;15.00;99.90;;;;;;5075056;28;20045;-68
2022/05/11 05:54:25;;;;;;;10.38;4.68;;;15.00;99.90;;;;;;5075786;28;20029;-65
2022/05/11 05:56:51;;;;;;;10.15;4.72;;;15.10;99.90;;;;;;5077096;28;20040;-64
2022/05/11 05:59:18;;;;;;;14.68;4.88;;;15.10;99.90;;;;;;5059483;28;20402;-63
2022/05/11 06:01:43;;;;;;;8.63;4.28;;;15.20;99.90;;;;;;5062694;28;20052;-64
2022/05/11 06:04:09;;;;;;;8.82;4.60;;;15.20;99.90;;;;;;5097008;28;20123;-65
2022/05/11 06:06:35;;;;;;;8.75;3.95;;;15.20;99.90;;;;;;5097241;28;20031;-64
2022/05/11 06:09:01;;;;;;;7.07;4.10;;;15.30;99.90;;;;;;5096910;28;20126;-63
2022/05/11 06:11:32;;;;;;;9.27;3.90;;;15.20;99.90;;;;;;5081952;28;20033;-65
2022/05/11 06:13:59;;;;;;;7.75;4.13;;;15.20;99.90;;;;;;5075295;28;20036;-64
2022/05/11 06:16:25;;;;;;;8.35;3.55;;;15.30;99.90;;;;;;5057981;28;20047;-64
2022/05/11 06:18:51;;;;;;;8.93;3.83;;;15.30;99.90;;;;;;5056984;28;20033;-63
2022/05/11 06:21:16;;;;;;;6.22;3.13;;;15.40;99.90;;;;;;5074534;28;20373;-63
2022/05/11 06:23:44;;;;;;;10.25;3.63;;;15.40;99.90;;;;;;5075269;28;20045;-66
2022/05/11 06:26:35;;;;;;;7.72;3.50;;;15.50;99.90;;;;;;5074240;28;20061;-64
2022/05/11 06:29:11;;;;;;;11.23;3.58;;;15.60;99.90;;;;;;5063133;28;20075;-65
2022/05/11 06:31:37;;;;;;;8.32;3.63;;;15.70;99.90;;;;;;5095267;28;20043;-65
2022/05/11 06:34:03;;;;;;;9.00;3.10;;;15.80;99.90;;;;;;5094533;28;20132;-64
2022/05/11 06:36:31;;;;;;;6.80;2.25;;;15.80;99.90;;;;;;5078624;28;20032;-64
2022/05/11 06:38:57;;;;;;;10.40;2.95;;;16.00;99.90;;;;;;5095913;28;20307;-66
2022/05/11 06:41:26;;;;;;;7.68;2.10;;;16.00;99.90;;;;;;5096135;28;20051;-64
2022/05/11 06:43:52;;;;;;;10.27;2.50;;;16.10;99.90;;;;;;5076103;28;20112;-64
2022/05/11 06:46:19;;;;;;;5.45;2.03;;;16.30;99.90;;;;;;5083476;28;20048;-63
2022/05/11 06:48:45;;;;;;;14.05;2.35;;;16.30;99.90;;;;;;5095923;28;20036;-65
2022/05/11 06:51:12;;;;;;;8.13;2.28;;;16.50;99.90;;;;;;5096349;28;20047;-64
2022/05/11 06:59:22;;;;;;;7.20;2.45;;;16.70;99.90;;;;;;5075452;28;20055;-64
2022/05/11 07:01:49;;;;;;;7.68;2.50;;;16.60;99.90;;;;;;5076686;28;20044;-64
2022/05/11 07:04:15;;;;;;;9.75;2.53;;;16.60;99.90;;;;;;5090833;28;20036;-65
2022/05/11 07:06:41;;;;;;;4.47;1.88;;;16.70;99.90;;;;;;5095885;28;20092;-64
2022/05/11 07:09:07;;;;;;;9.00;2.28;;;16.80;99.90;;;;;;5095439;28;20040;-65
2022/05/11 07:14:17;;;;;;;8.93;2.22;;;16.80;99.90;;;;;;5087739;28;20476;-65
2022/05/11 07:16:43;;;;;;;8.07;2.00;;;16.80;99.90;;;;;;5090828;28;20040;-64
2022/05/11 07:19:09;;;;;;;7.63;1.90;;;16.80;99.90;;;;;;5040700;28;20390;-64
2022/05/11 07:21:35;;;;;;;6.85;1.92;;;16.90;99.90;;;;;;5058906;28;20060;-65
2022/05/11 07:24:00;;;;;;;5.90;1.63;;;16.90;99.90;;;;;;5077619;28;20047;-64
2022/05/11 07:26:26;;;;;;;6.82;1.80;;;17.00;99.90;;;;;;5095391;28;20136;-64
2022/05/11 07:28:52;;;;;;;6.43;1.85;;;17.00;99.90;;;;;;5094819;28;20044;-66
2022/05/11 07:31:22;;;;;;;5.90;2.10;;;17.10;99.90;;;;;;5074325;28;20509;-63
2022/05/11 07:33:48;;;;;;;9.73;2.17;;;17.10;99.90;;;;;;5094955;28;20032;-64
2022/05/11 07:36:14;;;;;;;6.78;1.92;;;17.00;99.90;;;;;;5078205;28;20048;-65
2022/05/11 07:38:40;;;;;;;11.77;2.72;;;17.00;99.90;;;;;;5091107;28;20079;-64
2022/05/11 07:41:06;;;;;;;7.20;2.08;;;17.00;99.90;;;;;;5095226;28;20072;-65
2022/05/11 07:43:32;;;;;;;8.77;2.10;;;17.10;99.90;;;;;;5092405;28;20051;-64
2022/05/11 07:45:58;;;;;;;7.50;2.03;;;17.10;99.90;;;;;;5095111;28;20039;-64
2022/05/11 07:48:24;;;;;;;8.73;2.33;;;17.00;99.90;;;;;;5085799;28;20119;-64
2022/05/11 07:50:49;;;;;;;7.05;1.80;;;17.10;99.90;;;;;;5057116;28;20446;-64
2022/05/11 07:53:16;;;;;;;10.25;2.33;;;17.20;99.90;;;;;;5089537;28;20120;-64
2022/05/11 07:55:42;;;;;;;11.55;2.38;;;17.50;99.90;;;;;;5094965;28;20043;-64
2022/05/11 08:00:55;;;;;;;13.57;2.40;;;17.70;99.90;;;;;;5095041;28;20097;-64
2022/05/11 08:03:20;;;;;;;12.18;2.70;;;17.90;99.90;;;;;;5091758;28;20040;-64
2022/05/11 08:05:46;;;;;;;8.63;1.88;;;18.00;99.90;;;;;;5094690;28;20062;-65
2022/05/11 08:08:12;;;;;;;19.10;2.63;;;18.20;99.90;;;;;;5094014;28;20054;-64
2022/05/11 08:10:43;;;;;;;11.15;2.70;;;18.10;99.90;;;;;;5076948;28;20107;-64
2022/05/11 08:13:10;;;;;;;9.00;2.30;;;18.10;99.90;;;;;;5076347;28;20392;-64
2022/05/11 08:15:39;;;;;;;10.23;2.50;;;18.00;99.90;;;;;;5094778;28;20043;-65
2022/05/11 08:18:06;;;;;;;8.85;1.98;;;18.10;99.90;;;;;;5093944;28;20044;-65
2022/05/11 08:20:36;;;;;;;7.05;1.70;;;18.20;99.90;;;;;;5076759;28;20125;-64
2022/05/11 08:23:04;;;;;;;8.45;2.00;;;18.10;99.90;;;;;;5094583;28;20036;-66
2022/05/11 08:25:33;;;;;;;9.45;2.30;;;18.20;99.90;;;;;;5094058;28;20052;-65
2022/05/11 08:28:00;;;;;;;11.70;2.25;;;18.20;99.90;;;;;;5093811;28;20047;-65
2022/05/11 08:33:22;;;;;;;8.30;2.33;;;18.50;99.90;;;;;;5091173;28;20760;-66
2022/05/11 08:35:54;;;;;;;8.63;1.98;;;18.70;99.90;;;;;;5076447;28;20036;-65
2022/05/11 08:38:21;;;;;;;8.73;2.47;;;18.90;99.90;;;;;;5059241;28;20067;-66
2022/05/11 08:40:57;;;;;;;9.98;2.10;;;19.00;99.90;;;;;;5094177;28;20039;-65
2022/05/11 08:43:24;;;;;;;7.65;2.20;;;19.00;99.90;;;;;;5075678;28;20108;-65
2022/05/11 08:46:02;;;;;;;9.15;2.38;;;19.10;99.90;;;;;;5076282;28;20044;-65
2022/05/11 08:49:00;;;;;;;8.02;2.08;;;18.90;99.90;;;;;;5093641;28;20044;-65
2022/05/11 08:52:01;;;;;;;8.50;2.42;;;18.90;99.90;;;;;;5075864;28;20368;-65
2022/05/11 08:54:33;;;;;;;7.70;2.20;;;18.80;99.90;;;;;;5040654;28;20433;-66
2022/05/11 08:57:00;;;;;;;11.02;2.83;;;18.60;99.90;;;;;;5055955;28;20131;-65
2022/05/11 08:59:31;;;;;;;10.68;2.70;;;18.60;99.90;;;;;;5073558;28;20028;-65
2022/05/11 09:02:07;;;;;;;9.02;2.10;;;18.60;99.90;;;;;;5059828;28;20040;-65
2022/05/11 09:04:42;;;;;;;10.52;1.90;;;18.60;99.90;;;;;;5076070;28;20122;-64
2022/05/11 09:07:09;;;;;;;8.88;1.60;;;18.70;99.90;;;;;;5076474;28;20119;-65
2022/05/11 09:09:35;;;;;;;9.57;2.53;;;18.70;99.90;;;;;;5094003;28;20089;-64
2022/05/11 09:12:01;;;;;;;7.88;2.42;;;18.80;99.90;;;;;;5058660;28;20052;-65
2022/05/11 09:14:35;;;;;;;7.88;2.00;;;18.80;99.90;;;;;;5075933;28;20327;-63
2022/05/11 09:17:03;;;;;;;12.70;2.50;;;18.90;99.90;;;;;;5060991;28;20094;-62
2022/05/11 09:19:33;;;;;;;7.45;2.00;;;18.90;99.90;;;;;;5075409;28;20036;-64
2022/05/11 09:22:11;;;;;;;6.90;1.90;;;19.00;99.90;;;;;;5063732;28;20075;-64
2022/05/11 09:24:45;;;;;;;4.57;1.45;;;19.10;99.90;;;;;;5043272;28;20068;-65
2022/05/11 09:27:41;;;;;;;5.63;1.60;;;19.20;99.90;;;;;;5076854;28;20470;-64
2022/05/11 09:30:15;;;;;;;8.13;2.25;;;19.40;99.90;;;;;;5033295;28;20048;-64
2022/05/11 09:32:44;;;;;;;7.93;2.00;;;19.30;99.90;;;;;;5069033;28;20377;-63
2022/05/11 09:35:23;;;;;;;8.73;2.08;;;19.20;99.90;;;;;;5097699;28;20040;-64
2022/05/11 09:38:02;;;;;;;8.70;1.85;;;19.10;99.90;;;;;;5062237;28;20464;-63
2022/05/11 09:40:31;;;;;;;9.65;2.65;;;19.10;99.90;;;;;;5079377;28;20059;-63
2022/05/11 09:43:05;;;;;;;8.32;2.28;;;19.20;99.90;;;;;;5079205;28;20040;-65
2022/05/11 09:45:41;;;;;;;8.18;2.60;;;19.20;99.90;;;;;;5079318;28;20048;-64
2022/05/11 09:48:25;;;;;;;7.43;2.13;;;19.30;99.90;;;;;;5096884;28;20101;-66
2022/05/11 09:50:54;;;;;;;10.55;2.45;;;19.30;99.90;;;;;;5079601;28;20051;-63
2022/05/11 09:53:31;;;;;;;7.25;2.13;;;19.50;99.90;;;;;;5066282;28;20040;-64
2022/05/11 09:56:24;;;;;;;9.45;2.00;;;19.60;99.90;;;;;;5058185;28;20093;-64
2022/05/11 09:58:49;;;;;;;8.63;2.30;;;19.70;99.90;;;;;;5072909;28;20051;-64
2022/05/11 10:01:24;;;;;;;5.72;1.65;;;19.80;99.90;;;;;;5059095;28;20406;-63
2022/05/11 10:03:54;;;;;;;8.60;2.00;;;19.90;99.90;;;;;;5078076;28;20322;-63
2022/05/11 10:06:21;;;;;;;8.30;2.08;;;20.10;99.80;;;;;;5097411;28;20039;-63
2022/05/11 10:08:48;;;;;;;7.75;2.22;;;20.10;99.90;;;;;;5096719;28;20039;-64
2022/05/11 10:11:33;;;;;;;8.32;2.00;;;20.30;99.90;;;;;;5096635;28;20468;-63
2022/05/11 10:23:22;;;;;;;10.27;2.88;;;20.00;99.80;;;;;;5078306;28;20479;-64
2022/05/11 10:26:03;;;;;;;7.78;1.88;;;20.00;99.90;;;;;;5095242;28;20100;-64
2022/05/11 10:29:17;;;;;;;9.25;2.33;;;19.90;99.90;;;;;;5078441;28;20114;-64
2022/05/11 10:32:06;;;;;;;9.45;2.65;;;20.00;99.80;;;;;;5057307;28;20092;-64
2022/05/11 10:35:03;;;;;;;8.68;2.33;;;20.20;99.90;;;;;;5096197;28;20123;-64
2022/05/11 10:37:29;;;;;;;11.35;2.50;;;20.10;99.90;;;;;;5077982;28;20052;-64
2022/05/11 10:40:33;;;;;;;8.80;2.53;;;20.20;99.90;;;;;;5078971;28;20315;-66
2022/05/11 10:43:03;;;;;;;14.57;3.20;;;20.00;99.90;;;;;;5039344;28;20118;-64
2022/05/11 10:45:58;;;;;;;10.38;2.30;;;20.00;99.90;;;;;;5096395;28;20996;-64
2022/05/11 10:48:43;;;;;;;;;;;20.00;99.90;;;;;;5076026;28;20376;-64
2022/05/11 10:51:23;;;;;;;;;;;20.00;99.90;;;;;;5078885;28;19920;-64
2022/05/11 10:54:31;;;;;;;9.15;2.60;;;19.80;99.90;;;;;;5077705;28;19998;-63
2022/05/11 10:57:40;;;;;;;8.82;2.25;;;19.70;99.90;;;;;;4978117;28;20100;-64
2022/05/11 11:00:13;;;;;;;8.68;2.38;;;19.80;99.90;;;;;;4991968;28;20136;-63
2022/05/11 11:03:06;;;;;;;13.25;2.95;;;20.10;99.90;;;;;;5068487;28;20048;-64
2022/05/11 11:08:58;;;;;;;15.98;3.67;;;20.20;99.90;;;;;;5076187;28;20085;-63
2022/05/11 11:11:27;;;;;;;9.85;3.75;;;20.20;99.90;;;;;;5064706;28;20068;-63
2022/05/11 11:14:00;;;;;;;11.07;2.20;;;20.40;99.90;;;;;;5058404;28;20040;-63
2022/05/11 11:16:33;;;;;;;12.48;2.30;;;20.20;99.90;;;;;;5076502;28;20043;-63
2022/05/11 11:18:59;;;;;;;13.30;2.50;;;20.00;99.90;;;;;;5081982;28;20517;-63
2022/05/11 11:21:26;;;;;;;11.95;2.72;;;19.90;99.90;;;;;;5074608;28;20302;-63
2022/05/11 11:24:22;;;;;;;12.73;2.92;;;20.00;99.90;;;;;;5076905;28;20043;-63
2022/05/11 11:26:51;;;;;;;9.48;3.00;;;20.00;99.90;;;;;;5074685;28;20530;-64
2022/05/11 11:29:27;;;;;;;10.93;3.13;;;20.10;99.90;;;;;;5077016;28;20047;-63
2022/05/11 11:31:56;;;;;;;13.57;3.10;;;20.20;99.90;;;;;;5075649;28;20081;-63
2022/05/11 11:34:25;;;;;;;11.98;2.65;;;20.20;99.90;;;;;;5077486;28;20517;-64
2022/05/11 11:36:52;;;;;;;12.35;3.22;;;20.20;99.90;;;;;;5077467;28;20083;-64
2022/05/11 11:39:48;;;;;;;10.63;2.70;;;20.20;99.90;;;;;;5076996;28;20043;-64
2022/05/11 11:42:34;;;;;;;11.07;2.78;;;20.10;99.90;;;;;;5076362;28;20421;-64
2022/05/11 11:45:02;;;;;;;10.52;3.30;;;20.30;99.90;;;;;;5071853;28;20098;-65
2022/05/11 11:47:28;;;;;;;13.32;3.45;;;20.40;99.90;;;;;;5076993;28;20093;-66
2022/05/11 11:49:55;;;;;;;11.77;2.47;;;20.40;99.90;;;;;;5077023;28;20040;-64
2022/05/11 11:52:43;;;;;;;9.77;2.70;;;20.40;99.90;;;;;;5093875;28;20044;-64
2022/05/11 11:55:18;;;;;;;14.25;3.00;;;20.50;99.90;;;;;;5077141;28;20055;-65
2022/05/11 11:57:45;;;;;;;16.13;3.17;;;20.60;99.90;;;;;;5076452;28;20051;-65
2022/05/11 12:00:20;;;;;;;9.75;2.75;;;20.60;99.90;;;;;;5076921;28;20520;-64
2022/05/11 12:02:47;;;;;;;10.88;2.65;;;20.60;98.90;;;;;;5076341;28;20048;-64
2022/05/11 12:05:27;;;;;;;12.65;3.10;;;20.60;99.40;;;;;;5076770;28;20051;-64
2022/05/11 12:16:23;;;;;;;13.40;3.30;;;20.80;98.40;;;;;;5076734;28;20055;-64
2022/05/11 12:18:48;;;;;;;12.38;2.67;;;20.80;99.00;;;;;;5094187;28;20040;-64
2022/05/11 12:21:27;;;;;;;12.35;2.50;;;20.90;99.50;;;;;;5076538;28;20032;-64
2022/05/11 12:23:53;;;;;;;10.20;2.97;;;20.70;99.30;;;;;;5059361;28;20047;-65
2022/05/11 12:26:28;;;;;;;14.63;3.17;;;20.80;99.80;;;;;;5059771;28;20127;-65
2022/05/11 12:31:56;;;;;;;15.15;3.25;;;20.60;99.90;;;;;;5075470;28;20079;-64
2022/05/11 12:34:24;;;;;;;14.40;2.80;;;20.60;99.90;;;;;;5094407;28;20040;-65
2022/05/11 12:36:52;;;;;;;14.50;3.13;;;20.70;99.90;;;;;;5094044;28;20039;-64
2022/05/11 12:39:38;;;;;;;9.95;2.78;;;20.90;99.90;;;;;;5076463;28;20083;-64
2022/05/11 12:42:05;;;;;;;10.50;3.38;;;20.90;99.90;;;;;;5075395;28;20050;-65
2022/05/11 12:44:34;;;;;;;8.10;2.58;;;21.00;99.90;;;;;;5076221;28;20044;-64
2022/05/11 12:47:01;;;;;;;15.20;3.08;;;21.20;99.60;;;;;;5075873;28;20723;-65
2022/05/11 12:49:28;;;;;;;12.23;2.90;;;21.10;99.60;;;;;;5076167;28;20124;-65
2022/05/11 12:51:57;;;;;;;13.52;2.95;;;21.30;99.50;;;;;;5075394;28;20044;-64
2022/05/11 12:54:28;;;;;;;11.65;2.80;;;21.10;99.60;;;;;;5075443;28;20063;-64
2022/05/11 12:57:02;;;;;;;11.25;2.70;;;21.00;99.80;;;;;;5093630;28;20390;-64
2022/05/11 12:59:29;;;;;;;16.23;3.33;;;21.10;99.70;;;;;;5059856;28;20075;-65
2022/05/11 13:02:18;;;;;;;12.20;2.95;;;20.90;99.90;;;;;;5075757;28;20040;-64
2022/05/11 13:04:59;;;;;;;13.82;3.30;;;20.90;99.60;;;;;;5075878;28;20029;-65
2022/05/11 13:07:34;;;;;;;14.73;3.53;;;21.10;99.90;;;;;;5058939;28;20483;-64
2022/05/11 13:10:02;;;;;;;10.50;2.90;;;21.00;99.70;;;;;;5076179;28;20134;-64
2022/05/11 13:12:30;;;;;;;13.13;2.97;;;21.10;99.90;;;;;;5055766;28;20072;-63
2022/05/11 13:15:00;;;;;;;12.18;3.08;;;21.10;99.50;;;;;;5055996;28;20085;-64
2022/05/11 13:17:31;;;;;;;14.00;3.97;;;21.20;99.40;;;;;;5073067;28;20192;-63
2022/05/11 13:20:00;;;;;;;14.65;3.17;;;21.20;99.90;;;;;;5055664;28;20055;-64
2022/05/11 13:22:28;;;;;;;12.65;3.28;;;21.20;99.90;;;;;;5078882;28;20032;-64
2022/05/11 13:25:06;;;;;;;15.63;3.55;;;21.30;99.90;;;;;;5075499;28;20048;-64
2022/05/11 13:27:48;;;;;;;12.70;3.60;;;21.20;99.40;;;;;;5075360;28;20048;-64
2022/05/11 13:30:21;;;;;;;12.63;3.30;;;21.20;99.90;;;;;;5076047;28;20346;-64
2022/05/11 13:32:53;;;;;;;15.27;3.20;;;21.30;99.90;;;;;;5074831;28;20043;-64
2022/05/11 13:35:32;;;;;;;14.43;2.92;;;21.20;99.90;;;;;;5075744;28;20071;-64
2022/05/11 13:38:09;;;;;;;16.95;3.53;;;21.30;99.90;;;;;;5093179;28;20456;-64
2022/05/11 13:40:55;;;;;;;13.57;2.90;;;20.90;99.90;;;;;;5093692;28;20126;-63
2022/05/11 13:43:36;;;;;;;13.52;2.85;;;20.60;99.80;;;;;;5075676;28;20047;-64
2022/05/11 13:46:08;;;;;;;16.17;3.35;;;20.50;99.90;;;;;;5093620;28;20130;-64